sensor_id;sensor_type;location;lat;lon;timestamp;temperature;humidity
39997;DHT22;25688;52.338;21.072;2024-02-26T00:00:39;1.70;99.90
39997;DHT22;25688;52.338;21.072;2024-02-26T00:03:04;1.70;99.90
39997;DHT22;25688;52.338;21.072;2024-02-26T00:05:30;1.70;99.90
39997;DHT22;25688;52.338;21.072;2024-02-26T00:07:57;1.70;99.90
39997;DHT22;25688;52.338;21.072;2024-02-26T00:10:22;1.70;99.90
39997;DHT22;25688;52.338;21.072;2024-02-26T00:12:48;1.60;99.90
39997;DHT22;25688;52.338;21.072;2024-02-26T00:15:14;1.60;99.90
39997;DHT22;25688;52.338;21.072;2024-02-26T00:17:40;1.60;99.90
39997;DHT22;25688;52.338;21.072;2024-02-26T00:20:06;1.60;99.90
39997;DHT22;25688;52.338;21.072;2024-02-26T00:22:36;1.60;99.90
39997;DHT22;25688;52.338;21.072;2024-02-26T00:25:01;1.50;99.90
39997;DHT22;25688;52.338;21.072;2024-02-26T00:27:27;1.50;99.90
39997;DHT22;25688;52.338;21.072;2024-02-26T00:29:53;1.40;99.90
39997;DHT22;25688;52.338;21.072;2024-02-26T00:32:19;1.50;99.90
39997;DHT22;25688;52.338;21.072;2024-02-26T00:34:44;1.40;99.90
39997;DHT22;25688;52.338;21.072;2024-02-26T00:37:10;1.40;99.90
39997;DHT22;25688;52.338;21.072;2024-02-26T00:39:36;1.30;99.90
39997;DHT22;25688;52.338;21.072;2024-02-26T00:42:02;1.30;99.90
39997;DHT22;25688;52.338;21.072;2024-02-26T00:44:28;1.40;99.90
39997;DHT22;25688;52.338;21.072;2024-02-26T00:46:54;1.60;99.90
39997;DHT22;25688;52.338;21.072;2024-02-26T00:49:19;1.80;99.90
39997;DHT22;25688;52.338;21.072;2024-02-26T00:51:45;1.90;99.90
39997;DHT22;25688;52.338;21.072;2024-02-26T00:54:11;2.00;99.90
39997;DHT22;25688;52.338;21.072;2024-02-26T00:56:37;2.20;99.90
39997;DHT22;25688;52.338;21.072;2024-02-26T00:59:02;2.30;99.90
39997;DHT22;25688;52.338;21.072;2024-02-26T01:01:28;2.40;99.90
39997;DHT22;25688;52.338;21.072;2024-02-26T01:03:54;2.40;99.90
39997;DHT22;25688;52.338;21.072;2024-02-26T01:06:20;2.40;99.90
39997;DHT22;25688;52.338;21.072;2024-02-26T01:08:47;2.50;99.90
39997;DHT22;25688;52.338;21.072;2024-02-26T01:11:13;2.60;99.90
39997;DHT22;25688;52.338;21.072;2024-02-26T01:13:39;2.60;99.90
39997;DHT22;25688;52.338;21.072;2024-02-26T01:16:05;2.60;99.90
39997;DHT22;25688;52.338;21.072;2024-02-26T01:18:30;2.70;99.90
39997;DHT22;25688;52.338;21.072;2024-02-26T01:20:56;2.70;99.90
39997;DHT22;25688;52.338;21.072;2024-02-26T01:23:22;2.70;99.90
39997;DHT22;25688;52.338;21.072;2024-02-26T01:25:48;2.70;99.90
39997;DHT22;25688;52.338;21.072;2024-02-26T01:28:14;2.70;99.90
39997;DHT22;25688;52.338;21.072;2024-02-26T01:30:40;2.80;99.90
39997;DHT22;25688;52.338;21.072;2024-02-26T01:33:06;2.80;99.90
39997;DHT22;25688;52.338;21.072;2024-02-26T01:35:32;2.80;99.90
39997;DHT22;25688;52.338;21.072;2024-02-26T01:37:58;2.70;99.90
39997;DHT22;25688;52.338;21.072;2024-02-26T01:40:27;2.70;99.90
39997;DHT22;25688;52.338;21.072;2024-02-26T01:42:52;2.60;99.90
39997;DHT22;25688;52.338;21.072;2024-02-26T01:45:19;2.60;99.90
39997;DHT22;25688;52.338;21.072;2024-02-26T01:47:51;2.50;99.90
39997;DHT22;25688;52.338;21.072;2024-02-26T01:50:18;2.40;99.90
39997;DHT22;25688;52.338;21.072;2024-02-26T01:52:48;2.30;99.90
39997;DHT22;25688;52.338;21.072;2024-02-26T01:55:15;2.20;99.90
39997;DHT22;25688;52.338;21.072;2024-02-26T01:57:44;2.10;99.90
39997;DHT22;25688;52.338;21.072;2024-02-26T02:00:11;2.00;99.90
39997;DHT22;25688;52.338;21.072;2024-02-26T02:02:38;2.00;99.90
39997;DHT22;25688;52.338;21.072;2024-02-26T02:05:06;2.00;99.90
39997;DHT22;25688;52.338;21.072;2024-02-26T02:07:33;2.00;99.90
39997;DHT22;25688;52.338;21.072;2024-02-26T02:10:00;2.00;99.90
39997;DHT22;25688;52.338;21.072;2024-02-26T02:12:26;1.90;99.90
39997;DHT22;25688;52.338;21.072;2024-02-26T02:14:52;1.90;99.90
39997;DHT22;25688;52.338;21.072;2024-02-26T02:17:19;1.80;99.90
39997;DHT22;25688;52.338;21.072;2024-02-26T02:19:45;1.80;99.90
39997;DHT22;25688;52.338;21.072;2024-02-26T02:22:11;1.70;99.90
39997;DHT22;25688;52.338;21.072;2024-02-26T02:24:37;1.70;99.90
39997;DHT22;25688;52.338;21.072;2024-02-26T02:27:03;1.60;99.90
39997;DHT22;25688;52.338;21.072;2024-02-26T02:29:29;1.60;99.90
39997;DHT22;25688;52.338;21.072;2024-02-26T02:31:55;1.60;99.90
39997;DHT22;25688;52.338;21.072;2024-02-26T02:34:22;1.40;99.90
39997;DHT22;25688;52.338;21.072;2024-02-26T02:36:54;1.50;99.90
39997;DHT22;25688;52.338;21.072;2024-02-26T02:39:20;1.40;99.90
39997;DHT22;25688;52.338;21.072;2024-02-26T02:41:46;1.40;99.90
39997;DHT22;25688;52.338;21.072;2024-02-26T02:44:12;1.40;99.90
39997;DHT22;25688;52.338;21.072;2024-02-26T02:46:38;1.30;99.90
39997;DHT22;25688;52.338;21.072;2024-02-26T02:49:07;1.30;99.90
39997;DHT22;25688;52.338;21.072;2024-02-26T02:51:33;1.20;99.90
39997;DHT22;25688;52.338;21.072;2024-02-26T02:53:59;1.30;99.90
39997;DHT22;25688;52.338;21.072;2024-02-26T02:56:24;1.40;99.90
39997;DHT22;25688;52.338;21.072;2024-02-26T02:58:50;1.50;99.90
39997;DHT22;25688;52.338;21.072;2024-02-26T03:01:16;1.50;99.90
39997;DHT22;25688;52.338;21.072;2024-02-26T03:03:41;1.60;99.90
39997;DHT22;25688;52.338;21.072;2024-02-26T03:06:07;1.50;99.90
39997;DHT22;25688;52.338;21.072;2024-02-26T03:08:33;1.50;99.90
39997;DHT22;25688;52.338;21.072;2024-02-26T03:11:03;1.40;99.90
39997;DHT22;25688;52.338;21.072;2024-02-26T03:13:29;1.30;99.90
39997;DHT22;25688;52.338;21.072;2024-02-26T03:15:55;1.30;99.90
39997;DHT22;25688;52.338;21.072;2024-02-26T03:18:21;1.30;99.90
39997;DHT22;25688;52.338;21.072;2024-02-26T03:20:47;1.30;99.90
39997;DHT22;25688;52.338;21.072;2024-02-26T03:23:13;1.40;99.90
39997;DHT22;25688;52.338;21.072;2024-02-26T03:25:45;1.50;99.90
39997;DHT22;25688;52.338;21.072;2024-02-26T03:28:13;1.60;99.90
39997;DHT22;25688;52.338;21.072;2024-02-26T03:30:39;1.80;99.90
39997;DHT22;25688;52.338;21.072;2024-02-26T03:33:05;1.90;99.90
39997;DHT22;25688;52.338;21.072;2024-02-26T03:35:31;2.00;99.90
39997;DHT22;25688;52.338;21.072;2024-02-26T03:37:56;2.00;99.90
39997;DHT22;25688;52.338;21.072;2024-02-26T03:40:22;2.10;99.90
39997;DHT22;25688;52.338;21.072;2024-02-26T03:42:48;2.10;99.90
39997;DHT22;25688;52.338;21.072;2024-02-26T03:45:14;2.20;99.90
39997;DHT22;25688;52.338;21.072;2024-02-26T03:47:40;2.20;99.90
39997;DHT22;25688;52.338;21.072;2024-02-26T03:50:06;2.30;99.90
39997;DHT22;25688;52.338;21.072;2024-02-26T03:52:33;2.50;99.90
39997;DHT22;25688;52.338;21.072;2024-02-26T03:54:59;2.70;99.90
39997;DHT22;25688;52.338;21.072;2024-02-26T03:57:25;2.90;99.90
39997;DHT22;25688;52.338;21.072;2024-02-26T03:59:51;2.90;99.90
39997;DHT22;25688;52.338;21.072;2024-02-26T04:02:16;3.00;99.90
39997;DHT22;25688;52.338;21.072;2024-02-26T04:04:45;3.10;99.90
39997;DHT22;25688;52.338;21.072;2024-02-26T04:07:11;3.10;99.90
39997;DHT22;25688;52.338;21.072;2024-02-26T04:09:37;3.10;99.90
39997;DHT22;25688;52.338;21.072;2024-02-26T04:12:03;3.00;99.90
39997;DHT22;25688;52.338;21.072;2024-02-26T04:14:29;2.90;99.90
39997;DHT22;25688;52.338;21.072;2024-02-26T04:16:54;2.90;99.90
39997;DHT22;25688;52.338;21.072;2024-02-26T04:19:20;2.80;99.90
39997;DHT22;25688;52.338;21.072;2024-02-26T04:21:46;2.70;99.90
39997;DHT22;25688;52.338;21.072;2024-02-26T04:24:12;2.70;99.90
39997;DHT22;25688;52.338;21.072;2024-02-26T04:26:38;2.60;99.90
39997;DHT22;25688;52.338;21.072;2024-02-26T04:29:03;2.60;99.90
39997;DHT22;25688;52.338;21.072;2024-02-26T04:31:29;2.50;99.90
39997;DHT22;25688;52.338;21.072;2024-02-26T04:33:57;2.50;99.90
39997;DHT22;25688;52.338;21.072;2024-02-26T04:36:22;2.40;99.90
39997;DHT22;25688;52.338;21.072;2024-02-26T04:38:48;2.30;99.90
39997;DHT22;25688;52.338;21.072;2024-02-26T04:41:15;2.30;99.90
39997;DHT22;25688;52.338;21.072;2024-02-26T04:43:41;2.20;99.90
39997;DHT22;25688;52.338;21.072;2024-02-26T04:46:08;2.20;99.90
39997;DHT22;25688;52.338;21.072;2024-02-26T04:48:35;2.30;99.90
39997;DHT22;25688;52.338;21.072;2024-02-26T04:51:01;2.30;99.90
39997;DHT22;25688;52.338;21.072;2024-02-26T04:53:27;2.30;99.90
39997;DHT22;25688;52.338;21.072;2024-02-26T04:55:53;2.30;99.90
39997;DHT22;25688;52.338;21.072;2024-02-26T04:58:18;2.20;99.90
39997;DHT22;25688;52.338;21.072;2024-02-26T05:00:44;2.00;99.90
39997;DHT22;25688;52.338;21.072;2024-02-26T05:03:10;1.90;99.90
39997;DHT22;25688;52.338;21.072;2024-02-26T05:05:40;1.80;99.90
39997;DHT22;25688;52.338;21.072;2024-02-26T05:08:06;1.70;99.90
39997;DHT22;25688;52.338;21.072;2024-02-26T05:10:33;1.50;99.90
39997;DHT22;25688;52.338;21.072;2024-02-26T05:12:59;1.40;99.90
39997;DHT22;25688;52.338;21.072;2024-02-26T05:15:25;1.20;99.90
39997;DHT22;25688;52.338;21.072;2024-02-26T05:17:50;1.10;99.90
39997;DHT22;25688;52.338;21.072;2024-02-26T05:20:16;1.00;99.90
39997;DHT22;25688;52.338;21.072;2024-02-26T05:22:42;1.00;99.90
39997;DHT22;25688;52.338;21.072;2024-02-26T05:25:08;0.90;99.90
39997;DHT22;25688;52.338;21.072;2024-02-26T05:27:34;0.80;99.90
39997;DHT22;25688;52.338;21.072;2024-02-26T05:30:00;0.70;99.90
39997;DHT22;25688;52.338;21.072;2024-02-26T05:32:25;0.60;99.90
39997;DHT22;25688;52.338;21.072;2024-02-26T05:34:51;0.50;99.90
39997;DHT22;25688;52.338;21.072;2024-02-26T05:37:17;0.50;99.90
39997;DHT22;25688;52.338;21.072;2024-02-26T05:39:42;0.50;99.90
39997;DHT22;25688;52.338;21.072;2024-02-26T05:42:08;0.50;99.90
39997;DHT22;25688;52.338;21.072;2024-02-26T05:44:34;0.60;99.90
39997;DHT22;25688;52.338;21.072;2024-02-26T05:47:00;0.60;99.90
39997;DHT22;25688;52.338;21.072;2024-02-26T05:49:25;0.60;99.90
39997;DHT22;25688;52.338;21.072;2024-02-26T05:51:51;0.60;99.90
39997;DHT22;25688;52.338;21.072;2024-02-26T05:54:17;0.70;99.90
39997;DHT22;25688;52.338;21.072;2024-02-26T05:56:43;0.80;99.90
39997;DHT22;25688;52.338;21.072;2024-02-26T05:59:08;0.80;99.90
39997;DHT22;25688;52.338;21.072;2024-02-26T06:01:34;0.80;99.90
39997;DHT22;25688;52.338;21.072;2024-02-26T06:04:00;0.90;99.90
39997;DHT22;25688;52.338;21.072;2024-02-26T06:06:26;1.00;99.90
39997;DHT22;25688;52.338;21.072;2024-02-26T06:08:51;1.10;99.90
39997;DHT22;25688;52.338;21.072;2024-02-26T06:11:17;1.20;99.90
39997;DHT22;25688;52.338;21.072;2024-02-26T06:13:43;1.30;99.90
39997;DHT22;25688;52.338;21.072;2024-02-26T06:16:09;1.30;99.90
39997;DHT22;25688;52.338;21.072;2024-02-26T06:18:35;1.40;99.90
39997;DHT22;25688;52.338;21.072;2024-02-26T06:21:01;1.50;99.90
39997;DHT22;25688;52.338;21.072;2024-02-26T06:23:27;1.50;99.90
39997;DHT22;25688;52.338;21.072;2024-02-26T06:25:52;1.60;99.90
39997;DHT22;25688;52.338;21.072;2024-02-26T06:28:18;1.60;99.90
39997;DHT22;25688;52.338;21.072;2024-02-26T06:30:44;1.70;99.90
39997;DHT22;25688;52.338;21.072;2024-02-26T06:33:11;1.70;99.90
39997;DHT22;25688;52.338;21.072;2024-02-26T06:35:38;1.80;99.90
39997;DHT22;25688;52.338;21.072;2024-02-26T06:38:04;1.90;99.90
39997;DHT22;25688;52.338;21.072;2024-02-26T06:40:29;2.00;99.90
39997;DHT22;25688;52.338;21.072;2024-02-26T06:42:55;2.20;99.90
39997;DHT22;25688;52.338;21.072;2024-02-26T06:45:22;2.30;99.90
39997;DHT22;25688;52.338;21.072;2024-02-26T06:47:48;2.50;99.90
39997;DHT22;25688;52.338;21.072;2024-02-26T06:50:14;2.70;99.90
39997;DHT22;25688;52.338;21.072;2024-02-26T06:52:40;2.90;99.90
39997;DHT22;25688;52.338;21.072;2024-02-26T06:55:05;3.10;99.90
39997;DHT22;25688;52.338;21.072;2024-02-26T06:57:33;3.30;99.90
39997;DHT22;25688;52.338;21.072;2024-02-26T06:59:59;3.50;99.90
39997;DHT22;25688;52.338;21.072;2024-02-26T07:02:25;3.70;99.90
39997;DHT22;25688;52.338;21.072;2024-02-26T07:04:51;3.70;99.90
39997;DHT22;25688;52.338;21.072;2024-02-26T07:07:16;3.80;99.90
39997;DHT22;25688;52.338;21.072;2024-02-26T07:09:44;3.90;99.90
39997;DHT22;25688;52.338;21.072;2024-02-26T07:12:10;4.00;99.90
39997;DHT22;25688;52.338;21.072;2024-02-26T07:14:35;4.20;99.90
39997;DHT22;25688;52.338;21.072;2024-02-26T07:17:03;4.40;99.90
39997;DHT22;25688;52.338;21.072;2024-02-26T07:19:29;4.50;99.90
39997;DHT22;25688;52.338;21.072;2024-02-26T07:21:54;4.60;99.90
39997;DHT22;25688;52.338;21.072;2024-02-26T07:24:21;4.90;99.90
39997;DHT22;25688;52.338;21.072;2024-02-26T07:26:46;5.10;99.90
39997;DHT22;25688;52.338;21.072;2024-02-26T07:29:12;5.30;99.90
39997;DHT22;25688;52.338;21.072;2024-02-26T07:31:38;5.40;99.90
39997;DHT22;25688;52.338;21.072;2024-02-26T07:34:03;5.60;99.90
39997;DHT22;25688;52.338;21.072;2024-02-26T07:36:29;5.70;99.90
39997;DHT22;25688;52.338;21.072;2024-02-26T07:38:55;5.90;99.90
39997;DHT22;25688;52.338;21.072;2024-02-26T07:41:21;5.90;99.90
39997;DHT22;25688;52.338;21.072;2024-02-26T07:43:46;6.10;99.90
39997;DHT22;25688;52.338;21.072;2024-02-26T07:46:12;6.20;99.90
39997;DHT22;25688;52.338;21.072;2024-02-26T07:48:38;6.30;99.90
39997;DHT22;25688;52.338;21.072;2024-02-26T07:51:04;6.30;99.90
39997;DHT22;25688;52.338;21.072;2024-02-26T07:53:30;6.30;99.90
39997;DHT22;25688;52.338;21.072;2024-02-26T07:55:56;6.30;99.90
39997;DHT22;25688;52.338;21.072;2024-02-26T07:58:23;6.40;99.90
39997;DHT22;25688;52.338;21.072;2024-02-26T08:00:49;6.40;99.90
39997;DHT22;25688;52.338;21.072;2024-02-26T08:03:15;6.50;99.90
39997;DHT22;25688;52.338;21.072;2024-02-26T08:05:42;6.60;99.90
39997;DHT22;25688;52.338;21.072;2024-02-26T08:08:09;6.70;99.90
39997;DHT22;25688;52.338;21.072;2024-02-26T08:10:35;6.90;99.90
39997;DHT22;25688;52.338;21.072;2024-02-26T08:13:00;7.10;99.90
39997;DHT22;25688;52.338;21.072;2024-02-26T08:15:34;7.50;99.90
39997;DHT22;25688;52.338;21.072;2024-02-26T08:18:01;7.70;99.90
39997;DHT22;25688;52.338;21.072;2024-02-26T08:20:30;7.90;99.90
39997;DHT22;25688;52.338;21.072;2024-02-26T08:22:56;8.10;99.90
39997;DHT22;25688;52.338;21.072;2024-02-26T08:25:23;8.30;99.90
39997;DHT22;25688;52.338;21.072;2024-02-26T08:27:49;8.40;99.90
39997;DHT22;25688;52.338;21.072;2024-02-26T08:30:16;8.50;99.90
39997;DHT22;25688;52.338;21.072;2024-02-26T08:32:43;8.60;99.90
39997;DHT22;25688;52.338;21.072;2024-02-26T08:35:09;8.70;99.90
39997;DHT22;25688;52.338;21.072;2024-02-26T08:37:35;8.90;99.90
39997;DHT22;25688;52.338;21.072;2024-02-26T08:40:01;9.10;99.90
39997;DHT22;25688;52.338;21.072;2024-02-26T08:42:26;9.20;99.90
39997;DHT22;25688;52.338;21.072;2024-02-26T08:44:52;9.40;99.90
39997;DHT22;25688;52.338;21.072;2024-02-26T08:47:20;9.50;99.90
39997;DHT22;25688;52.338;21.072;2024-02-26T08:49:45;9.50;99.90
39997;DHT22;25688;52.338;21.072;2024-02-26T08:52:11;9.60;99.90
39997;DHT22;25688;52.338;21.072;2024-02-26T08:54:37;9.70;99.90
39997;DHT22;25688;52.338;21.072;2024-02-26T08:57:03;9.90;99.90
39997;DHT22;25688;52.338;21.072;2024-02-26T08:59:29;9.90;99.90
39997;DHT22;25688;52.338;21.072;2024-02-26T09:01:55;10.10;99.90
39997;DHT22;25688;52.338;21.072;2024-02-26T09:04:21;10.20;99.90
39997;DHT22;25688;52.338;21.072;2024-02-26T09:06:47;10.30;99.90
39997;DHT22;25688;52.338;21.072;2024-02-26T09:09:13;10.30;99.90
39997;DHT22;25688;52.338;21.072;2024-02-26T09:11:39;10.40;99.90
39997;DHT22;25688;52.338;21.072;2024-02-26T09:14:04;10.50;99.90
39997;DHT22;25688;52.338;21.072;2024-02-26T09:16:30;10.60;99.90
39997;DHT22;25688;52.338;21.072;2024-02-26T09:18:56;10.60;99.90
39997;DHT22;25688;52.338;21.072;2024-02-26T09:21:22;10.60;99.90
39997;DHT22;25688;52.338;21.072;2024-02-26T09:23:50;10.60;99.90
39997;DHT22;25688;52.338;21.072;2024-02-26T09:26:16;10.80;99.90
39997;DHT22;25688;52.338;21.072;2024-02-26T09:28:42;10.80;99.90
39997;DHT22;25688;52.338;21.072;2024-02-26T09:31:08;10.90;99.90
39997;DHT22;25688;52.338;21.072;2024-02-26T09:33:34;10.90;99.90
39997;DHT22;25688;52.338;21.072;2024-02-26T09:36:00;11.10;99.90
39997;DHT22;25688;52.338;21.072;2024-02-26T09:38:27;11.20;99.90
39997;DHT22;25688;52.338;21.072;2024-02-26T09:40:53;11.30;99.90
39997;DHT22;25688;52.338;21.072;2024-02-26T09:43:22;11.40;99.90
39997;DHT22;25688;52.338;21.072;2024-02-26T09:45:53;11.30;99.90
39997;DHT22;25688;52.338;21.072;2024-02-26T09:48:20;11.30;99.90
39997;DHT22;25688;52.338;21.072;2024-02-26T09:50:47;11.20;99.90
39997;DHT22;25688;52.338;21.072;2024-02-26T09:53:12;11.10;99.90
39997;DHT22;25688;52.338;21.072;2024-02-26T09:55:40;11.10;99.90
39997;DHT22;25688;52.338;21.072;2024-02-26T09:58:06;11.00;99.90
39997;DHT22;25688;52.338;21.072;2024-02-26T10:00:37;10.90;99.90
39997;DHT22;25688;52.338;21.072;2024-02-26T10:03:04;10.90;99.90
39997;DHT22;25688;52.338;21.072;2024-02-26T10:05:32;10.90;99.90
39997;DHT22;25688;52.338;21.072;2024-02-26T10:08:00;11.00;99.90
39997;DHT22;25688;52.338;21.072;2024-02-26T10:10:28;11.10;99.90
39997;DHT22;25688;52.338;21.072;2024-02-26T10:12:54;11.10;99.90
39997;DHT22;25688;52.338;21.072;2024-02-26T10:15:20;11.10;99.90
39997;DHT22;25688;52.338;21.072;2024-02-26T10:17:46;11.00;99.90
39997;DHT22;25688;52.338;21.072;2024-02-26T10:20:19;11.10;99.90
39997;DHT22;25688;52.338;21.072;2024-02-26T10:22:47;11.10;99.90
39997;DHT22;25688;52.338;21.072;2024-02-26T10:25:14;11.10;99.90
39997;DHT22;25688;52.338;21.072;2024-02-26T10:27:41;11.20;99.90
39997;DHT22;25688;52.338;21.072;2024-02-26T10:30:20;11.30;99.90
39997;DHT22;25688;52.338;21.072;2024-02-26T10:32:47;11.30;99.90
39997;DHT22;25688;52.338;21.072;2024-02-26T10:35:17;11.40;99.90
39997;DHT22;25688;52.338;21.072;2024-02-26T10:37:43;11.40;99.90
39997;DHT22;25688;52.338;21.072;2024-02-26T10:40:13;11.40;99.90
39997;DHT22;25688;52.338;21.072;2024-02-26T10:42:40;11.40;99.90
39997;DHT22;25688;52.338;21.072;2024-02-26T10:45:07;11.40;99.90
39997;DHT22;25688;52.338;21.072;2024-02-26T10:47:38;11.30;99.90
39997;DHT22;25688;52.338;21.072;2024-02-26T10:50:06;11.30;99.90
39997;DHT22;25688;52.338;21.072;2024-02-26T10:52:33;11.30;99.90
39997;DHT22;25688;52.338;21.072;2024-02-26T10:55:04;11.30;99.90
39997;DHT22;25688;52.338;21.072;2024-02-26T10:57:36;11.40;99.90
39997;DHT22;25688;52.338;21.072;2024-02-26T11:00:04;11.40;99.90
39997;DHT22;25688;52.338;21.072;2024-02-26T11:02:33;11.40;99.90
39997;DHT22;25688;52.338;21.072;2024-02-26T11:05:03;11.40;99.90
39997;DHT22;25688;52.338;21.072;2024-02-26T11:07:30;11.40;99.90
39997;DHT22;25688;52.338;21.072;2024-02-26T11:09:59;11.40;99.90
39997;DHT22;25688;52.338;21.072;2024-02-26T11:12:28;11.60;99.90
39997;DHT22;25688;52.338;21.072;2024-02-26T11:14:55;11.70;99.90
39997;DHT22;25688;52.338;21.072;2024-02-26T11:17:28;11.70;99.90
39997;DHT22;25688;52.338;21.072;2024-02-26T11:19:58;11.60;99.90
39997;DHT22;25688;52.338;21.072;2024-02-26T11:22:27;11.80;99.90
39997;DHT22;25688;52.338;21.072;2024-02-26T11:24:55;12.10;99.90
39997;DHT22;25688;52.338;21.072;2024-02-26T11:27:39;12.00;99.90
39997;DHT22;25688;52.338;21.072;2024-02-26T11:30:10;12.20;99.90
39997;DHT22;25688;52.338;21.072;2024-02-26T11:32:37;12.40;99.90
39997;DHT22;25688;52.338;21.072;2024-02-26T11:35:04;12.50;99.90
39997;DHT22;25688;52.338;21.072;2024-02-26T11:37:32;12.50;99.90
39997;DHT22;25688;52.338;21.072;2024-02-26T11:39:59;12.60;99.90
39997;DHT22;25688;52.338;21.072;2024-02-26T11:42:28;12.70;99.90
39997;DHT22;25688;52.338;21.072;2024-02-26T11:44:56;12.80;99.90
39997;DHT22;25688;52.338;21.072;2024-02-26T11:47:27;12.80;99.90
39997;DHT22;25688;52.338;21.072;2024-02-26T11:49:52;12.80;99.90
39997;DHT22;25688;52.338;21.072;2024-02-26T11:52:18;12.90;99.90
39997;DHT22;25688;52.338;21.072;2024-02-26T11:54:52;13.10;99.90
39997;DHT22;25688;52.338;21.072;2024-02-26T11:57:27;13.20;99.90
39997;DHT22;25688;52.338;21.072;2024-02-26T12:02:46;13.20;99.90
39997;DHT22;25688;52.338;21.072;2024-02-26T12:05:20;13.20;99.90
39997;DHT22;25688;52.338;21.072;2024-02-26T12:07:47;12.90;99.90
39997;DHT22;25688;52.338;21.072;2024-02-26T12:12:58;12.60;99.90
39997;DHT22;25688;52.338;21.072;2024-02-26T12:15:36;12.40;99.90
39997;DHT22;25688;52.338;21.072;2024-02-26T12:18:04;12.30;99.90
39997;DHT22;25688;52.338;21.072;2024-02-26T12:20:30;12.30;99.90
39997;DHT22;25688;52.338;21.072;2024-02-26T12:22:56;12.30;99.90
39997;DHT22;25688;52.338;21.072;2024-02-26T12:25:26;12.10;99.90
39997;DHT22;25688;52.338;21.072;2024-02-26T12:27:55;12.10;99.90
39997;DHT22;25688;52.338;21.072;2024-02-26T12:30:22;12.20;99.90
39997;DHT22;25688;52.338;21.072;2024-02-26T12:32:50;12.30;99.90
39997;DHT22;25688;52.338;21.072;2024-02-26T12:35:16;12.50;99.90
39997;DHT22;25688;52.338;21.072;2024-02-26T12:37:43;12.60;99.90
39997;DHT22;25688;52.338;21.072;2024-02-26T12:40:09;12.80;99.90
39997;DHT22;25688;52.338;21.072;2024-02-26T12:42:36;12.80;99.90
39997;DHT22;25688;52.338;21.072;2024-02-26T12:45:07;12.90;99.90
39997;DHT22;25688;52.338;21.072;2024-02-26T12:47:43;12.90;99.90
39997;DHT22;25688;52.338;21.072;2024-02-26T12:50:10;12.90;99.90
39997;DHT22;25688;52.338;21.072;2024-02-26T12:52:46;12.90;99.90
39997;DHT22;25688;52.338;21.072;2024-02-26T12:55:18;13.00;99.90
39997;DHT22;25688;52.338;21.072;2024-02-26T12:57:44;13.10;99.90
39997;DHT22;25688;52.338;21.072;2024-02-26T13:00:16;13.10;99.90
39997;DHT22;25688;52.338;21.072;2024-02-26T13:02:43;13.20;99.90
39997;DHT22;25688;52.338;21.072;2024-02-26T13:05:11;13.20;99.90
39997;DHT22;25688;52.338;21.072;2024-02-26T13:07:47;13.20;99.90
39997;DHT22;25688;52.338;21.072;2024-02-26T13:10:13;13.30;99.90
39997;DHT22;25688;52.338;21.072;2024-02-26T13:12:46;13.50;99.90
39997;DHT22;25688;52.338;21.072;2024-02-26T13:15:17;13.60;99.90
39997;DHT22;25688;52.338;21.072;2024-02-26T13:17:47;13.60;99.90
39997;DHT22;25688;52.338;21.072;2024-02-26T13:20:13;13.60;99.90
39997;DHT22;25688;52.338;21.072;2024-02-26T13:22:50;13.60;99.90
39997;DHT22;25688;52.338;21.072;2024-02-26T13:25:20;13.60;99.90
39997;DHT22;25688;52.338;21.072;2024-02-26T13:27:46;13.50;99.90
39997;DHT22;25688;52.338;21.072;2024-02-26T13:30:12;13.40;99.90
39997;DHT22;25688;52.338;21.072;2024-02-26T13:32:40;13.40;99.90
39997;DHT22;25688;52.338;21.072;2024-02-26T13:35:10;13.40;99.90
39997;DHT22;25688;52.338;21.072;2024-02-26T13:37:37;13.30;99.90
39997;DHT22;25688;52.338;21.072;2024-02-26T13:40:10;13.30;99.90
39997;DHT22;25688;52.338;21.072;2024-02-26T13:42:37;13.20;99.90
39997;DHT22;25688;52.338;21.072;2024-02-26T13:45:04;13.10;99.90
39997;DHT22;25688;52.338;21.072;2024-02-26T13:47:36;13.10;99.90
39997;DHT22;25688;52.338;21.072;2024-02-26T13:50:02;13.00;99.90
39997;DHT22;25688;52.338;21.072;2024-02-26T13:52:28;13.00;99.90
39997;DHT22;25688;52.338;21.072;2024-02-26T13:54:53;13.00;99.90
39997;DHT22;25688;52.338;21.072;2024-02-26T13:57:19;13.00;99.90
39997;DHT22;25688;52.338;21.072;2024-02-26T13:59:45;13.10;99.90
39997;DHT22;25688;52.338;21.072;2024-02-26T14:02:11;13.20;99.90
39997;DHT22;25688;52.338;21.072;2024-02-26T14:04:37;13.20;99.90
39997;DHT22;25688;52.338;21.072;2024-02-26T14:07:04;13.20;99.90
39997;DHT22;25688;52.338;21.072;2024-02-26T14:09:30;13.10;99.90
39997;DHT22;25688;52.338;21.072;2024-02-26T14:11:58;13.10;99.90
39997;DHT22;25688;52.338;21.072;2024-02-26T14:14:24;13.00;99.90
39997;DHT22;25688;52.338;21.072;2024-02-26T14:16:51;13.00;99.90
39997;DHT22;25688;52.338;21.072;2024-02-26T14:19:17;13.00;99.90
39997;DHT22;25688;52.338;21.072;2024-02-26T14:21:43;13.00;99.90
39997;DHT22;25688;52.338;21.072;2024-02-26T14:24:09;12.90;99.90
39997;DHT22;25688;52.338;21.072;2024-02-26T14:26:35;12.90;99.90
39997;DHT22;25688;52.338;21.072;2024-02-26T14:29:00;12.80;99.90
39997;DHT22;25688;52.338;21.072;2024-02-26T14:31:26;12.70;99.90
39997;DHT22;25688;52.338;21.072;2024-02-26T14:33:52;12.70;99.90
39997;DHT22;25688;52.338;21.072;2024-02-26T14:36:22;12.70;99.90
39997;DHT22;25688;52.338;21.072;2024-02-26T14:38:48;12.70;99.90
39997;DHT22;25688;52.338;21.072;2024-02-26T14:41:14;12.60;99.90
39997;DHT22;25688;52.338;21.072;2024-02-26T14:43:40;12.60;99.90
39997;DHT22;25688;52.338;21.072;2024-02-26T14:46:06;12.50;99.90
39997;DHT22;25688;52.338;21.072;2024-02-26T14:48:32;12.60;99.90
39997;DHT22;25688;52.338;21.072;2024-02-26T14:50:58;12.60;99.90
39997;DHT22;25688;52.338;21.072;2024-02-26T14:53:25;12.60;99.90
39997;DHT22;25688;52.338;21.072;2024-02-26T14:55:52;12.60;99.90
39997;DHT22;25688;52.338;21.072;2024-02-26T14:58:18;12.60;99.90
39997;DHT22;25688;52.338;21.072;2024-02-26T15:00:43;12.60;99.90
39997;DHT22;25688;52.338;21.072;2024-02-26T15:03:09;12.60;99.90
39997;DHT22;25688;52.338;21.072;2024-02-26T15:05:35;12.50;99.90
39997;DHT22;25688;52.338;21.072;2024-02-26T15:08:01;12.50;99.90
39997;DHT22;25688;52.338;21.072;2024-02-26T15:10:28;12.40;99.90
39997;DHT22;25688;52.338;21.072;2024-02-26T15:12:54;12.40;99.90
39997;DHT22;25688;52.338;21.072;2024-02-26T15:15:23;12.30;99.90
39997;DHT22;25688;52.338;21.072;2024-02-26T15:17:49;12.20;99.90
39997;DHT22;25688;52.338;21.072;2024-02-26T15:20:15;12.20;99.90
39997;DHT22;25688;52.338;21.072;2024-02-26T15:22:41;12.10;99.90
39997;DHT22;25688;52.338;21.072;2024-02-26T15:25:08;12.00;99.90
39997;DHT22;25688;52.338;21.072;2024-02-26T15:27:34;12.00;99.90